sensor_id;sensor_type;location;lat;lon;timestamp;P1;durP1;ratioP1;P2;durP2;ratioP2
22357;SDS011;11346;50.150;8.150;2023-10-13T00:00:14;9.53;;;5.40;;
22357;SDS011;11346;50.150;8.150;2023-10-13T00:02:53;9.73;;;6.00;;
22357;SDS011;11346;50.150;8.150;2023-10-13T00:05:20;10.63;;;5.80;;
22357;SDS011;11346;50.150;8.150;2023-10-13T00:07:51;11.43;;;5.70;;
22357;SDS011;11346;50.150;8.150;2023-10-13T00:10:18;12.37;;;5.70;;
22357;SDS011;11346;50.150;8.150;2023-10-13T00:12:46;10.80;;;6.40;;
22357;SDS011;11346;50.150;8.150;2023-10-13T00:15:14;11.07;;;5.43;;
22357;SDS011;11346;50.150;8.150;2023-10-13T00:17:42;9.87;;;5.77;;
22357;SDS011;11346;50.150;8.150;2023-10-13T00:20:11;10.33;;;6.00;;
22357;SDS011;11346;50.150;8.150;2023-10-13T00:22:53;11.63;;;5.33;;
22357;SDS011;11346;50.150;8.150;2023-10-13T00:25:22;11.30;;;6.40;;
22357;SDS011;11346;50.150;8.150;2023-10-13T00:27:52;8.77;;;5.43;;
22357;SDS011;11346;50.150;8.150;2023-10-13T00:30:20;14.13;;;5.93;;
22357;SDS011;11346;50.150;8.150;2023-10-13T00:32:52;9.10;;;5.50;;
22357;SDS011;11346;50.150;8.150;2023-10-13T00:35:22;13.37;;;6.93;;
22357;SDS011;11346;50.150;8.150;2023-10-13T00:37:53;15.00;;;6.50;;
22357;SDS011;11346;50.150;8.150;2023-10-13T00:40:22;16.57;;;6.80;;
22357;SDS011;11346;50.150;8.150;2023-10-13T00:43:18;13.87;;;6.97;;
22357;SDS011;11346;50.150;8.150;2023-10-13T00:45:58;14.93;;;6.47;;
22357;SDS011;11346;50.150;8.150;2023-10-13T00:48:33;11.07;;;6.87;;
22357;SDS011;11346;50.150;8.150;2023-10-13T00:51:07;13.67;;;6.67;;
22357;SDS011;11346;50.150;8.150;2023-10-13T00:53:43;19.27;;;7.03;;
22357;SDS011;11346;50.150;8.150;2023-10-13T00:56:09;14.80;;;6.80;;
22357;SDS011;11346;50.150;8.150;2023-10-13T00:58:46;11.60;;;6.50;;
22357;SDS011;11346;50.150;8.150;2023-10-13T01:01:12;13.50;;;6.77;;
22357;SDS011;11346;50.150;8.150;2023-10-13T01:03:46;11.13;;;6.90;;
22357;SDS011;11346;50.150;8.150;2023-10-13T01:06:13;16.87;;;6.97;;
22357;SDS011;11346;50.150;8.150;2023-10-13T01:08:41;11.00;;;6.90;;
22357;SDS011;11346;50.150;8.150;2023-10-13T01:11:09;15.30;;;6.83;;
22357;SDS011;11346;50.150;8.150;2023-10-13T01:13:38;14.20;;;7.60;;
22357;SDS011;11346;50.150;8.150;2023-10-13T01:16:08;16.93;;;7.00;;
22357;SDS011;11346;50.150;8.150;2023-10-13T01:18:35;13.80;;;7.27;;
22357;SDS011;11346;50.150;8.150;2023-10-13T01:21:12;15.67;;;7.00;;
22357;SDS011;11346;50.150;8.150;2023-10-13T01:23:42;17.40;;;7.53;;
22357;SDS011;11346;50.150;8.150;2023-10-13T01:26:09;11.93;;;6.73;;
22357;SDS011;11346;50.150;8.150;2023-10-13T01:28:38;22.03;;;8.53;;
22357;SDS011;11346;50.150;8.150;2023-10-13T01:31:10;13.30;;;6.53;;
22357;SDS011;11346;50.150;8.150;2023-10-13T01:33:49;10.70;;;6.47;;
22357;SDS011;11346;50.150;8.150;2023-10-13T01:36:18;11.37;;;7.03;;
22357;SDS011;11346;50.150;8.150;2023-10-13T01:38:47;14.10;;;6.53;;
22357;SDS011;11346;50.150;8.150;2023-10-13T01:41:13;13.70;;;6.30;;
22357;SDS011;11346;50.150;8.150;2023-10-13T01:43:40;13.27;;;6.37;;
22357;SDS011;11346;50.150;8.150;2023-10-13T01:46:06;18.13;;;6.63;;
22357;SDS011;11346;50.150;8.150;2023-10-13T01:48:34;18.07;;;7.60;;
22357;SDS011;11346;50.150;8.150;2023-10-13T01:51:04;13.43;;;7.40;;
22357;SDS011;11346;50.150;8.150;2023-10-13T01:53:34;13.17;;;6.77;;
22357;SDS011;11346;50.150;8.150;2023-10-13T01:56:03;14.33;;;7.37;;
22357;SDS011;11346;50.150;8.150;2023-10-13T01:58:35;12.97;;;7.27;;
22357;SDS011;11346;50.150;8.150;2023-10-13T02:01:01;15.90;;;7.80;;
22357;SDS011;11346;50.150;8.150;2023-10-13T02:03:32;14.10;;;7.50;;
22357;SDS011;11346;50.150;8.150;2023-10-13T02:05:59;18.80;;;8.60;;
22357;SDS011;11346;50.150;8.150;2023-10-13T02:08:29;16.10;;;8.03;;
22357;SDS011;11346;50.150;8.150;2023-10-13T02:10:56;16.87;;;8.53;;
22357;SDS011;11346;50.150;8.150;2023-10-13T02:13:25;20.27;;;8.40;;
22357;SDS011;11346;50.150;8.150;2023-10-13T02:15:54;17.90;;;9.17;;
22357;SDS011;11346;50.150;8.150;2023-10-13T02:18:21;16.97;;;9.10;;
22357;SDS011;11346;50.150;8.150;2023-10-13T02:20:51;17.47;;;8.37;;
22357;SDS011;11346;50.150;8.150;2023-10-13T02:23:20;16.63;;;9.07;;
22357;SDS011;11346;50.150;8.150;2023-10-13T02:25:47;18.47;;;8.77;;
22357;SDS011;11346;50.150;8.150;2023-10-13T02:28:13;23.97;;;9.80;;
22357;SDS011;11346;50.150;8.150;2023-10-13T02:30:48;16.80;;;8.77;;
22357;SDS011;11346;50.150;8.150;2023-10-13T02:33:15;17.57;;;8.87;;
22357;SDS011;11346;50.150;8.150;2023-10-13T02:35:46;17.83;;;9.23;;
22357;SDS011;11346;50.150;8.150;2023-10-13T02:38:18;17.73;;;8.50;;
22357;SDS011;11346;50.150;8.150;2023-10-13T02:40:52;16.97;;;8.73;;
22357;SDS011;11346;50.150;8.150;2023-10-13T02:43:19;20.63;;;8.00;;
22357;SDS011;11346;50.150;8.150;2023-10-13T02:45:52;20.13;;;8.23;;
22357;SDS011;11346;50.150;8.150;2023-10-13T02:48:23;17.60;;;7.77;;
22357;SDS011;11346;50.150;8.150;2023-10-13T02:50:56;18.33;;;7.27;;
22357;SDS011;11346;50.150;8.150;2023-10-13T02:53:22;19.03;;;7.40;;
22357;SDS011;11346;50.150;8.150;2023-10-13T02:55:53;17.27;;;7.50;;
22357;SDS011;11346;50.150;8.150;2023-10-13T02:58:20;16.90;;;7.83;;
22357;SDS011;11346;50.150;8.150;2023-10-13T03:00:48;17.33;;;7.20;;
22357;SDS011;11346;50.150;8.150;2023-10-13T03:03:15;16.30;;;8.13;;
22357;SDS011;11346;50.150;8.150;2023-10-13T03:05:44;21.77;;;7.30;;
22357;SDS011;11346;50.150;8.150;2023-10-13T03:08:10;15.47;;;6.63;;
22357;SDS011;11346;50.150;8.150;2023-10-13T03:10:42;15.93;;;7.13;;
22357;SDS011;11346;50.150;8.150;2023-10-13T03:13:14;17.30;;;6.57;;
22357;SDS011;11346;50.150;8.150;2023-10-13T03:15:41;15.77;;;6.97;;
22357;SDS011;11346;50.150;8.150;2023-10-13T03:18:12;12.87;;;6.63;;
22357;SDS011;11346;50.150;8.150;2023-10-13T03:20:44;18.27;;;6.80;;
22357;SDS011;11346;50.150;8.150;2023-10-13T03:23:21;16.70;;;8.17;;
22357;SDS011;11346;50.150;8.150;2023-10-13T03:25:50;22.43;;;8.93;;
22357;SDS011;11346;50.150;8.150;2023-10-13T03:28:20;19.33;;;9.13;;
22357;SDS011;11346;50.150;8.150;2023-10-13T03:30:50;23.70;;;9.80;;
22357;SDS011;11346;50.150;8.150;2023-10-13T03:33:19;21.10;;;10.37;;
22357;SDS011;11346;50.150;8.150;2023-10-13T03:35:52;18.50;;;10.80;;
22357;SDS011;11346;50.150;8.150;2023-10-13T03:38:24;20.37;;;10.17;;
22357;SDS011;11346;50.150;8.150;2023-10-13T03:40:52;17.23;;;10.33;;
22357;SDS011;11346;50.150;8.150;2023-10-13T03:43:31;21.53;;;10.03;;
22357;SDS011;11346;50.150;8.150;2023-10-13T03:46:09;25.13;;;9.83;;
22357;SDS011;11346;50.150;8.150;2023-10-13T03:48:37;21.17;;;10.23;;
22357;SDS011;11346;50.150;8.150;2023-10-13T03:51:18;20.13;;;9.07;;
22357;SDS011;11346;50.150;8.150;2023-10-13T03:53:45;17.13;;;9.83;;
22357;SDS011;11346;50.150;8.150;2023-10-13T03:56:19;20.63;;;9.10;;
22357;SDS011;11346;50.150;8.150;2023-10-13T03:58:52;23.47;;;8.90;;
22357;SDS011;11346;50.150;8.150;2023-10-13T04:01:22;15.60;;;8.63;;
22357;SDS011;11346;50.150;8.150;2023-10-13T04:03:56;20.23;;;10.20;;
22357;SDS011;11346;50.150;8.150;2023-10-13T04:06:29;21.80;;;9.17;;
22357;SDS011;11346;50.150;8.150;2023-10-13T04:09:17;17.40;;;8.77;;
22357;SDS011;11346;50.150;8.150;2023-10-13T04:12:02;20.47;;;8.23;;
22357;SDS011;11346;50.150;8.150;2023-10-13T04:14:51;21.77;;;8.83;;
22357;SDS011;11346;50.150;8.150;2023-10-13T04:17:39;22.30;;;9.00;;
22357;SDS011;11346;50.150;8.150;2023-10-13T04:20:10;25.97;;;9.43;;
22357;SDS011;11346;50.150;8.150;2023-10-13T04:22:54;20.50;;;9.23;;
22357;SDS011;11346;50.150;8.150;2023-10-13T04:25:44;19.10;;;9.07;;
22357;SDS011;11346;50.150;8.150;2023-10-13T04:28:29;16.87;;;9.27;;
22357;SDS011;11346;50.150;8.150;2023-10-13T04:31:16;17.43;;;9.30;;
22357;SDS011;11346;50.150;8.150;2023-10-13T04:34:06;17.67;;;8.93;;
22357;SDS011;11346;50.150;8.150;2023-10-13T04:36:40;21.67;;;9.37;;
22357;SDS011;11346;50.150;8.150;2023-10-13T04:39:12;19.87;;;9.37;;
22357;SDS011;11346;50.150;8.150;2023-10-13T04:41:54;23.50;;;9.10;;
22357;SDS011;11346;50.150;8.150;2023-10-13T04:44:36;14.40;;;8.90;;
22357;SDS011;11346;50.150;8.150;2023-10-13T04:47:14;15.60;;;8.83;;
22357;SDS011;11346;50.150;8.150;2023-10-13T04:49:46;19.03;;;8.40;;
22357;SDS011;11346;50.150;8.150;2023-10-13T04:52:17;14.27;;;7.90;;
22357;SDS011;11346;50.150;8.150;2023-10-13T04:55:17;20.00;;;7.93;;
22357;SDS011;11346;50.150;8.150;2023-10-13T04:58:13;19.00;;;8.17;;
22357;SDS011;11346;50.150;8.150;2023-10-13T05:01:10;20.30;;;7.73;;
22357;SDS011;11346;50.150;8.150;2023-10-13T05:04:09;13.23;;;8.17;;
22357;SDS011;11346;50.150;8.150;2023-10-13T05:06:47;17.43;;;8.17;;
22357;SDS011;11346;50.150;8.150;2023-10-13T05:09:46;21.20;;;7.50;;
22357;SDS011;11346;50.150;8.150;2023-10-13T05:12:32;20.17;;;7.57;;
22357;SDS011;11346;50.150;8.150;2023-10-13T05:15:17;16.70;;;8.40;;
22357;SDS011;11346;50.150;8.150;2023-10-13T05:18:01;15.50;;;8.33;;
22357;SDS011;11346;50.150;8.150;2023-10-13T05:20:46;19.30;;;8.37;;
22357;SDS011;11346;50.150;8.150;2023-10-13T05:23:31;22.57;;;8.80;;
22357;SDS011;11346;50.150;8.150;2023-10-13T05:26:15;19.47;;;9.07;;
22357;SDS011;11346;50.150;8.150;2023-10-13T05:29:01;21.97;;;8.53;;
22357;SDS011;11346;50.150;8.150;2023-10-13T05:31:46;19.83;;;9.07;;
22357;SDS011;11346;50.150;8.150;2023-10-13T05:34:30;24.90;;;9.50;;
22357;SDS011;11346;50.150;8.150;2023-10-13T05:37:15;24.63;;;9.73;;
22357;SDS011;11346;50.150;8.150;2023-10-13T05:40:00;22.17;;;10.27;;
22357;SDS011;11346;50.150;8.150;2023-10-13T05:42:44;24.37;;;10.50;;
22357;SDS011;11346;50.150;8.150;2023-10-13T05:45:30;19.07;;;10.47;;
22357;SDS011;11346;50.150;8.150;2023-10-13T05:48:26;18.73;;;9.90;;
22357;SDS011;11346;50.150;8.150;2023-10-13T05:51:07;22.73;;;10.87;;
22357;SDS011;11346;50.150;8.150;2023-10-13T05:53:52;23.27;;;10.33;;
22357;SDS011;11346;50.150;8.150;2023-10-13T05:56:49;22.50;;;9.40;;
22357;SDS011;11346;50.150;8.150;2023-10-13T05:59:35;19.57;;;8.37;;
22357;SDS011;11346;50.150;8.150;2023-10-13T06:02:22;19.77;;;9.00;;
22357;SDS011;11346;50.150;8.150;2023-10-13T06:05:07;23.37;;;8.60;;
22357;SDS011;11346;50.150;8.150;2023-10-13T06:07:52;17.43;;;8.13;;
22357;SDS011;11346;50.150;8.150;2023-10-13T06:10:33;23.70;;;7.63;;
22357;SDS011;11346;50.150;8.150;2023-10-13T06:13:18;15.73;;;7.63;;
22357;SDS011;11346;50.150;8.150;2023-10-13T06:16:04;15.33;;;8.00;;
22357;SDS011;11346;50.150;8.150;2023-10-13T06:18:50;20.47;;;8.27;;
22357;SDS011;11346;50.150;8.150;2023-10-13T06:21:35;16.60;;;7.13;;
22357;SDS011;11346;50.150;8.150;2023-10-13T06:24:22;17.37;;;7.00;;
22357;SDS011;11346;50.150;8.150;2023-10-13T06:27:07;15.23;;;6.83;;
22357;SDS011;11346;50.150;8.150;2023-10-13T06:29:51;16.50;;;6.87;;
22357;SDS011;11346;50.150;8.150;2023-10-13T06:32:18;16.13;;;7.70;;
22357;SDS011;11346;50.150;8.150;2023-10-13T06:34:52;15.73;;;7.57;;
22357;SDS011;11346;50.150;8.150;2023-10-13T06:37:22;16.27;;;7.00;;
22357;SDS011;11346;50.150;8.150;2023-10-13T06:39:56;12.63;;;6.43;;
22357;SDS011;11346;50.150;8.150;2023-10-13T06:42:24;11.80;;;6.77;;
22357;SDS011;11346;50.150;8.150;2023-10-13T06:44:52;17.10;;;6.47;;
22357;SDS011;11346;50.150;8.150;2023-10-13T06:47:20;15.03;;;6.03;;
22357;SDS011;11346;50.150;8.150;2023-10-13T06:49:47;24.40;;;7.20;;
22357;SDS011;11346;50.150;8.150;2023-10-13T06:52:17;13.13;;;6.30;;
22357;SDS011;11346;50.150;8.150;2023-10-13T06:54:44;14.27;;;6.10;;
22357;SDS011;11346;50.150;8.150;2023-10-13T06:57:12;17.47;;;6.30;;
22357;SDS011;11346;50.150;8.150;2023-10-13T06:59:40;17.07;;;5.23;;
22357;SDS011;11346;50.150;8.150;2023-10-13T07:02:07;18.53;;;5.60;;
22357;SDS011;11346;50.150;8.150;2023-10-13T07:04:45;14.57;;;5.47;;
22357;SDS011;11346;50.150;8.150;2023-10-13T07:07:12;17.93;;;6.37;;
22357;SDS011;11346;50.150;8.150;2023-10-13T07:09:42;12.53;;;5.97;;
22357;SDS011;11346;50.150;8.150;2023-10-13T07:12:14;18.50;;;5.70;;
22357;SDS011;11346;50.150;8.150;2023-10-13T07:14:48;11.77;;;5.73;;
22357;SDS011;11346;50.150;8.150;2023-10-13T07:17:18;15.50;;;5.27;;
22357;SDS011;11346;50.150;8.150;2023-10-13T07:19:49;16.40;;;5.93;;
22357;SDS011;11346;50.150;8.150;2023-10-13T07:22:19;16.30;;;5.60;;
22357;SDS011;11346;50.150;8.150;2023-10-13T07:24:48;18.77;;;5.97;;
22357;SDS011;11346;50.150;8.150;2023-10-13T07:27:16;15.67;;;5.50;;
22357;SDS011;11346;50.150;8.150;2023-10-13T07:29:48;16.77;;;6.60;;
22357;SDS011;11346;50.150;8.150;2023-10-13T07:32:21;15.57;;;6.17;;
22357;SDS011;11346;50.150;8.150;2023-10-13T07:34:51;20.37;;;6.53;;
22357;SDS011;11346;50.150;8.150;2023-10-13T07:37:20;14.97;;;5.47;;
22357;SDS011;11346;50.150;8.150;2023-10-13T07:39:51;11.03;;;5.67;;
22357;SDS011;11346;50.150;8.150;2023-10-13T07:42:22;16.03;;;5.80;;
22357;SDS011;11346;50.150;8.150;2023-10-13T07:44:55;12.80;;;6.33;;
22357;SDS011;11346;50.150;8.150;2023-10-13T07:47:22;14.10;;;5.97;;
22357;SDS011;11346;50.150;8.150;2023-10-13T07:49:53;15.53;;;5.93;;
22357;SDS011;11346;50.150;8.150;2023-10-13T07:52:22;14.13;;;6.37;;
22357;SDS011;11346;50.150;8.150;2023-10-13T07:55:03;14.93;;;5.80;;
22357;SDS011;11346;50.150;8.150;2023-10-13T07:57:45;15.37;;;6.30;;
22357;SDS011;11346;50.150;8.150;2023-10-13T08:00:24;11.27;;;5.87;;
22357;SDS011;11346;50.150;8.150;2023-10-13T08:03:11;13.27;;;5.73;;
22357;SDS011;11346;50.150;8.150;2023-10-13T08:05:56;13.57;;;5.77;;
22357;SDS011;11346;50.150;8.150;2023-10-13T08:08:29;15.27;;;6.33;;
22357;SDS011;11346;50.150;8.150;2023-10-13T08:11:04;18.97;;;5.43;;
22357;SDS011;11346;50.150;8.150;2023-10-13T08:13:49;11.93;;;5.67;;
22357;SDS011;11346;50.150;8.150;2023-10-13T08:16:21;15.97;;;6.20;;
22357;SDS011;11346;50.150;8.150;2023-10-13T08:18:48;13.10;;;6.07;;
22357;SDS011;11346;50.150;8.150;2023-10-13T08:21:15;12.37;;;6.03;;
22357;SDS011;11346;50.150;8.150;2023-10-13T08:23:48;11.40;;;6.00;;
22357;SDS011;11346;50.150;8.150;2023-10-13T08:26:27;14.30;;;5.93;;
22357;SDS011;11346;50.150;8.150;2023-10-13T08:29:12;17.27;;;6.87;;
22357;SDS011;11346;50.150;8.150;2023-10-13T08:31:57;11.30;;;6.60;;
22357;SDS011;11346;50.150;8.150;2023-10-13T08:34:40;13.93;;;6.13;;
22357;SDS011;11346;50.150;8.150;2023-10-13T08:37:25;13.77;;;5.57;;
22357;SDS011;11346;50.150;8.150;2023-10-13T08:39:55;16.10;;;6.70;;
22357;SDS011;11346;50.150;8.150;2023-10-13T08:42:47;14.90;;;6.43;;
22357;SDS011;11346;50.150;8.150;2023-10-13T08:45:37;13.10;;;6.30;;
22357;SDS011;11346;50.150;8.150;2023-10-13T08:48:19;11.60;;;6.17;;
22357;SDS011;11346;50.150;8.150;2023-10-13T08:50:51;16.20;;;6.80;;
22357;SDS011;11346;50.150;8.150;2023-10-13T08:53:20;18.03;;;7.23;;
22357;SDS011;11346;50.150;8.150;2023-10-13T08:55:56;12.87;;;6.17;;
22357;SDS011;11346;50.150;8.150;2023-10-13T08:58:34;16.23;;;6.00;;
22357;SDS011;11346;50.150;8.150;2023-10-13T09:01:19;12.03;;;6.93;;
22357;SDS011;11346;50.150;8.150;2023-10-13T09:04:10;14.93;;;6.17;;
22357;SDS011;11346;50.150;8.150;2023-10-13T09:06:47;11.63;;;6.37;;
22357;SDS011;11346;50.150;8.150;2023-10-13T09:09:25;15.57;;;7.00;;
22357;SDS011;11346;50.150;8.150;2023-10-13T09:11:53;11.60;;;6.13;;
22357;SDS011;11346;50.150;8.150;2023-10-13T09:14:35;8.47;;;5.87;;
22357;SDS011;11346;50.150;8.150;2023-10-13T09:17:04;11.87;;;6.10;;
22357;SDS011;11346;50.150;8.150;2023-10-13T09:19:43;14.37;;;6.00;;
22357;SDS011;11346;50.150;8.150;2023-10-13T09:22:19;13.37;;;6.57;;
22357;SDS011;11346;50.150;8.150;2023-10-13T09:24:51;12.93;;;6.33;;
22357;SDS011;11346;50.150;8.150;2023-10-13T09:27:17;14.30;;;7.03;;
22357;SDS011;11346;50.150;8.150;2023-10-13T09:29:55;11.20;;;6.23;;
22357;SDS011;11346;50.150;8.150;2023-10-13T09:32:21;14.57;;;6.50;;
22357;SDS011;11346;50.150;8.150;2023-10-13T09:34:48;15.47;;;6.13;;
22357;SDS011;11346;50.150;8.150;2023-10-13T09:37:16;13.60;;;6.40;;
22357;SDS011;11346;50.150;8.150;2023-10-13T09:39:46;8.37;;;5.07;;
22357;SDS011;11346;50.150;8.150;2023-10-13T09:42:17;15.90;;;6.13;;
22357;SDS011;11346;50.150;8.150;2023-10-13T09:44:45;14.03;;;6.60;;
22357;SDS011;11346;50.150;8.150;2023-10-13T09:47:25;9.97;;;6.20;;
22357;SDS011;11346;50.150;8.150;2023-10-13T09:49:58;9.60;;;5.60;;
22357;SDS011;11346;50.150;8.150;2023-10-13T09:52:28;11.90;;;6.83;;
22357;SDS011;11346;50.150;8.150;2023-10-13T09:55:05;14.13;;;6.40;;
22357;SDS011;11346;50.150;8.150;2023-10-13T09:57:39;16.27;;;6.53;;
22357;SDS011;11346;50.150;8.150;2023-10-13T10:00:11;9.37;;;6.03;;
22357;SDS011;11346;50.150;8.150;2023-10-13T10:03:11;12.27;;;6.80;;
22357;SDS011;11346;50.150;8.150;2023-10-13T10:05:58;15.73;;;7.00;;
22357;SDS011;11346;50.150;8.150;2023-10-13T10:08:29;12.73;;;6.93;;
22357;SDS011;11346;50.150;8.150;2023-10-13T10:13:47;11.00;;;6.17;;
22357;SDS011;11346;50.150;8.150;2023-10-13T10:16:20;12.07;;;6.63;;
22357;SDS011;11346;50.150;8.150;2023-10-13T10:19:00;13.30;;;6.33;;
22357;SDS011;11346;50.150;8.150;2023-10-13T10:21:32;8.97;;;5.63;;
22357;SDS011;11346;50.150;8.150;2023-10-13T10:24:00;12.93;;;6.07;;
22357;SDS011;11346;50.150;8.150;2023-10-13T10:26:49;11.77;;;6.87;;
22357;SDS011;11346;50.150;8.150;2023-10-13T10:29:17;14.80;;;5.67;;
22357;SDS011;11346;50.150;8.150;2023-10-13T10:31:44;16.47;;;6.27;;
22357;SDS011;11346;50.150;8.150;2023-10-13T10:34:14;12.90;;;6.17;;
22357;SDS011;11346;50.150;8.150;2023-10-13T10:36:45;17.40;;;6.70;;
22357;SDS011;11346;50.150;8.150;2023-10-13T10:39:13;15.87;;;6.90;;
22357;SDS011;11346;50.150;8.150;2023-10-13T10:41:42;11.87;;;6.50;;
22357;SDS011;11346;50.150;8.150;2023-10-13T10:44:17;11.60;;;6.70;;
22357;SDS011;11346;50.150;8.150;2023-10-13T10:46:47;10.97;;;6.47;;
22357;SDS011;11346;50.150;8.150;2023-10-13T10:49:24;11.17;;;6.23;;
22357;SDS011;11346;50.150;8.150;2023-10-13T10:51:57;12.67;;;6.23;;
22357;SDS011;11346;50.150;8.150;2023-10-13T10:54:26;9.53;;;5.13;;
22357;SDS011;11346;50.150;8.150;2023-10-13T10:56:56;11.77;;;6.20;;
22357;SDS011;11346;50.150;8.150;2023-10-13T10:59:35;15.73;;;5.97;;
22357;SDS011;11346;50.150;8.150;2023-10-13T11:02:03;11.90;;;6.47;;
22357;SDS011;11346;50.150;8.150;2023-10-13T11:04:33;12.07;;;6.50;;
22357;SDS011;11346;50.150;8.150;2023-10-13T11:07:00;11.63;;;5.70;;
22357;SDS011;11346;50.150;8.150;2023-10-13T11:09:28;11.07;;;6.00;;
22357;SDS011;11346;50.150;8.150;2023-10-13T11:12:12;13.13;;;6.10;;
22357;SDS011;11346;50.150;8.150;2023-10-13T11:14:49;11.07;;;6.77;;
22357;SDS011;11346;50.150;8.150;2023-10-13T11:17:26;9.47;;;5.67;;
22357;SDS011;11346;50.150;8.150;2023-10-13T11:20:09;12.70;;;6.20;;
22357;SDS011;11346;50.150;8.150;2023-10-13T11:22:45;15.77;;;6.87;;
22357;SDS011;11346;50.150;8.150;2023-10-13T11:25:19;9.33;;;5.40;;
22357;SDS011;11346;50.150;8.150;2023-10-13T11:27:47;12.47;;;6.30;;
22357;SDS011;11346;50.150;8.150;2023-10-13T11:30:26;11.37;;;6.20;;
22357;SDS011;11346;50.150;8.150;2023-10-13T11:33:07;13.80;;;6.43;;
22357;SDS011;11346;50.150;8.150;2023-10-13T11:35:36;12.07;;;6.10;;
22357;SDS011;11346;50.150;8.150;2023-10-13T11:38:21;12.40;;;6.00;;
22357;SDS011;11346;50.150;8.150;2023-10-13T11:40:51;13.53;;;6.47;;
22357;SDS011;11346;50.150;8.150;2023-10-13T11:43:37;11.27;;;6.27;;
22357;SDS011;11346;50.150;8.150;2023-10-13T11:46:18;13.17;;;6.70;;
22357;SDS011;11346;50.150;8.150;2023-10-13T11:49:05;14.40;;;7.03;;
22357;SDS011;11346;50.150;8.150;2023-10-13T11:51:43;12.20;;;6.40;;
22357;SDS011;11346;50.150;8.150;2023-10-13T11:54:11;12.07;;;6.83;;
22357;SDS011;11346;50.150;8.150;2023-10-13T11:56:38;14.97;;;6.70;;
22357;SDS011;11346;50.150;8.150;2023-10-13T11:59:05;14.50;;;6.60;;
22357;SDS011;11346;50.150;8.150;2023-10-13T12:01:41;10.27;;;6.10;;
22357;SDS011;11346;50.150;8.150;2023-10-13T12:04:22;18.97;;;7.20;;
22357;SDS011;11346;50.150;8.150;2023-10-13T12:07:10;9.13;;;5.80;;
22357;SDS011;11346;50.150;8.150;2023-10-13T12:09:45;13.20;;;6.53;;
22357;SDS011;11346;50.150;8.150;2023-10-13T12:12:28;12.37;;;6.60;;
22357;SDS011;11346;50.150;8.150;2023-10-13T12:14:56;14.07;;;6.60;;
22357;SDS011;11346;50.150;8.150;2023-10-13T12:17:34;10.40;;;6.40;;
22357;SDS011;11346;50.150;8.150;2023-10-13T12:20:01;10.80;;;6.03;;
22357;SDS011;11346;50.150;8.150;2023-10-13T12:22:31;18.30;;;6.93;;
22357;SDS011;11346;50.150;8.150;2023-10-13T12:25:04;8.27;;;5.67;;
22357;SDS011;11346;50.150;8.150;2023-10-13T12:27:43;9.60;;;5.73;;
22357;SDS011;11346;50.150;8.150;2023-10-13T12:30:13;11.57;;;6.40;;
22357;SDS011;11346;50.150;8.150;2023-10-13T12:32:47;9.27;;;5.57;;
22357;SDS011;11346;50.150;8.150;2023-10-13T12:35:23;10.57;;;5.37;;
22357;SDS011;11346;50.150;8.150;2023-10-13T12:37:56;9.13;;;5.97;;
22357;SDS011;11346;50.150;8.150;2023-10-13T12:40:31;11.33;;;6.23;;
22357;SDS011;11346;50.150;8.150;2023-10-13T12:43:15;15.27;;;6.43;;
22357;SDS011;11346;50.150;8.150;2023-10-13T12:46:00;12.03;;;5.77;;
22357;SDS011;11346;50.150;8.150;2023-10-13T12:48:45;10.70;;;5.90;;
22357;SDS011;11346;50.150;8.150;2023-10-13T12:51:29;12.63;;;6.00;;
22357;SDS011;11346;50.150;8.150;2023-10-13T12:54:18;14.23;;;5.30;;
22357;SDS011;11346;50.150;8.150;2023-10-13T12:56:52;14.03;;;5.80;;
22357;SDS011;11346;50.150;8.150;2023-10-13T12:59:22;13.13;;;5.83;;
22357;SDS011;11346;50.150;8.150;2023-10-13T13:01:51;12.80;;;5.50;;
22357;SDS011;11346;50.150;8.150;2023-10-13T13:04:19;8.70;;;5.57;;
22357;SDS011;11346;50.150;8.150;2023-10-13T13:06:46;7.90;;;4.90;;
22357;SDS011;11346;50.150;8.150;2023-10-13T13:09:14;12.20;;;6.27;;
22357;SDS011;11346;50.150;8.150;2023-10-13T13:11:42;8.07;;;5.10;;
22357;SDS011;11346;50.150;8.150;2023-10-13T13:14:13;12.30;;;5.97;;
22357;SDS011;11346;50.150;8.150;2023-10-13T13:16:40;10.27;;;5.40;;
22357;SDS011;11346;50.150;8.150;2023-10-13T13:19:13;9.27;;;5.13;;
22357;SDS011;11346;50.150;8.150;2023-10-13T13:21:49;13.60;;;5.57;;
22357;SDS011;11346;50.150;8.150;2023-10-13T13:24:16;18.20;;;6.13;;
22357;SDS011;11346;50.150;8.150;2023-10-13T13:26:44;7.37;;;4.60;;
22357;SDS011;11346;50.150;8.150;2023-10-13T13:29:13;10.67;;;5.00;;
22357;SDS011;11346;50.150;8.150;2023-10-13T13:31:41;13.10;;;4.90;;
22357;SDS011;11346;50.150;8.150;2023-10-13T13:34:09;12.43;;;5.00;;
22357;SDS011;11346;50.150;8.150;2023-10-13T13:36:37;11.33;;;5.20;;
22357;SDS011;11346;50.150;8.150;2023-10-13T13:39:09;10.77;;;5.07;;
22357;SDS011;11346;50.150;8.150;2023-10-13T13:41:36;9.13;;;5.23;;
22357;SDS011;11346;50.150;8.150;2023-10-13T13:44:04;9.53;;;5.30;;
22357;SDS011;11346;50.150;8.150;2023-10-13T13:46:39;13.33;;;5.50;;
22357;SDS011;11346;50.150;8.150;2023-10-13T13:49:09;10.63;;;5.30;;
22357;SDS011;11346;50.150;8.150;2023-10-13T13:51:44;8.90;;;4.67;;
22357;SDS011;11346;50.150;8.150;2023-10-13T13:54:17;8.83;;;4.93;;
22357;SDS011;11346;50.150;8.150;2023-10-13T13:56:44;14.77;;;5.33;;
22357;SDS011;11346;50.150;8.150;2023-10-13T13:59:12;8.80;;;4.90;;
22357;SDS011;11346;50.150;8.150;2023-10-13T14:01:44;14.07;;;5.83;;
22357;SDS011;11346;50.150;8.150;2023-10-13T14:04:12;8.00;;;4.80;;
22357;SDS011;11346;50.150;8.150;2023-10-13T14:06:42;12.53;;;4.90;;
22357;SDS011;11346;50.150;8.150;2023-10-13T14:09:10;16.30;;;4.53;;
22357;SDS011;11346;50.150;8.150;2023-10-13T14:11:41;9.50;;;5.23;;
22357;SDS011;11346;50.150;8.150;2023-10-13T14:14:32;7.07;;;4.63;;
22357;SDS011;11346;50.150;8.150;2023-10-13T14:16:59;11.97;;;5.20;;
22357;SDS011;11346;50.150;8.150;2023-10-13T14:19:31;9.07;;;5.30;;
22357;SDS011;11346;50.150;8.150;2023-10-13T14:21:59;7.60;;;4.60;;
22357;SDS011;11346;50.150;8.150;2023-10-13T14:24:31;10.37;;;5.13;;
22357;SDS011;11346;50.150;8.150;2023-10-13T14:26:59;9.27;;;4.67;;
22357;SDS011;11346;50.150;8.150;2023-10-13T14:29:35;8.87;;;5.67;;
22357;SDS011;11346;50.150;8.150;2023-10-13T14:32:05;12.00;;;5.23;;
22357;SDS011;11346;50.150;8.150;2023-10-13T14:34:32;14.70;;;5.27;;
22357;SDS011;11346;50.150;8.150;2023-10-13T14:37:00;14.20;;;5.30;;
22357;SDS011;11346;50.150;8.150;2023-10-13T14:39:29;10.17;;;4.83;;
22357;SDS011;11346;50.150;8.150;2023-10-13T14:41:59;9.73;;;5.37;;
22357;SDS011;11346;50.150;8.150;2023-10-13T14:44:27;11.40;;;5.20;;
22357;SDS011;11346;50.150;8.150;2023-10-13T14:46:56;8.97;;;5.10;;
22357;SDS011;11346;50.150;8.150;2023-10-13T14:49:23;11.27;;;5.40;;
22357;SDS011;11346;50.150;8.150;2023-10-13T14:51:50;9.53;;;5.40;;
22357;SDS011;11346;50.150;8.150;2023-10-13T14:54:20;10.33;;;4.90;;
22357;SDS011;11346;50.150;8.150;2023-10-13T14:56:57;10.03;;;5.23;;
22357;SDS011;11346;50.150;8.150;2023-10-13T14:59:25;10.90;;;5.00;;
22357;SDS011;11346;50.150;8.150;2023-10-13T15:01:52;11.00;;;4.73;;
22357;SDS011;11346;50.150;8.150;2023-10-13T15:04:21;8.07;;;5.20;;
22357;SDS011;11346;50.150;8.150;2023-10-13T15:06:50;7.33;;;4.43;;
22357;SDS011;11346;50.150;8.150;2023-10-13T15:09:17;10.07;;;5.03;;
22357;SDS011;11346;50.150;8.150;2023-10-13T15:11:48;7.50;;;4.53;;
22357;SDS011;11346;50.150;8.150;2023-10-13T15:14:18;11.17;;;4.83;;
22357;SDS011;11346;50.150;8.150;2023-10-13T15:16:47;11.50;;;5.13;;
22357;SDS011;11346;50.150;8.150;2023-10-13T15:19:15;10.03;;;4.67;;